Whittier, CA

11:33 AM PDT on August 28, 2015 (GMT -0700)
South Whittier | | Change Station
CLOSE
Current Station
Personal Weather Station
Location: Whittier, CA
Elevation: 197 ft
Nearby Weather Stations

Elev 197 ft 33.94 °N, 118.02 °W | Updated 1 minute ago

Clear
Clear
93.6 °F
Feels Like 94 °F
N
3.0
Wind Variable Wind from SSW
Gusts 6.0 mph

Today
High -- | Low -- °F
--% Chance of Precip.
Yesterday
High -- | Low -- °F
Precip. -- in
6:22 AM 7:23 PM
Waxing Gibbous, 98% visible
Pressure 29.88 in
Visibility 10.0 miles
Clouds Clear
Heat Index 94 °F
Dew Point 61 °F
Humidity 34%
Rainfall 0.00 in
Snow Depth Not available.
UV 8 out of 12
Pollen 6.50 out of 12
Air Quality Not available.
Flu Activity Not available.
METAR KFUL 281753Z VRB03KT 10SM CLR 33/15 A2988 RMK AO2 SLP117 T03330150 10339 20228 57002
Pressure 29.88 in
Visibility 10.0 miles
Clouds Clear
Heat Index 94 °F
Dew Point 61 °F
Humidity 34%
Rainfall 0.00 in
Snow Depth Not available.
UV 8 out of 12
Pollen 6.50 out of 12
Air Quality Not available.
Flu Activity Not available.
METAR KFUL 281753Z VRB03KT 10SM CLR 33/15 A2988 RMK AO2 SLP117 T03330150 10339 20228 57002

10-Day Weather Forecast

×

Almanac

Astronomy

Aug. 28, 2015 Rise Set
Actual Time
Civil Twilight
Nautical Twilight
Astronomical Twilight
Moon
Length of Visible Light
Length of Day
Tomorrow will be .
, % of the Moon is Illuminated

Today's Extremes

State Highs State Lows

Community

WunderPhotos

Upload Photos

1,850,453 photos uploaded!

WunderBlogs® & News

Nearby

Air Quality

  Air Quality AQ Index Pollutant
Not available.

Snow Depth

Station Depth Elevation

Earthquake Activity

City Distance Mag. Time & Date
Minimum magnitude displayed is 2.5.

Coastal Water Temperatures

Place Temperature

Stations

Nearby Weather Stations

Station Location Temp. Windchill Dew Point Humidity Wind Precip. Elev Updated Type